createdAt,value
2023-03-20T00:00:53.399Z,98062.38
2023-03-20T00:03:56.637Z,98061.19
2023-03-20T00:06:59.274Z,98067.06
2023-03-20T00:10:02.923Z,98058.44
2023-03-20T00:13:06.977Z,98062.47
2023-03-20T00:16:11.617Z,98067.06
2023-03-20T00:19:30.277Z,98058.22
2023-03-20T00:22:35.781Z,98052.16
2023-03-20T00:25:40.390Z,98054.88
2023-03-20T00:28:44.731Z,98048.84
2023-03-20T00:31:47.780Z,98047.56
2023-03-20T00:34:50.637Z,98048.38
2023-03-20T00:37:53.519Z,98039.72
2023-03-20T00:40:56.270Z,98043.88
2023-03-20T00:44:01.340Z,98039.63
2023-03-20T00:47:13.879Z,98036.66
2023-03-20T00:50:22.520Z,98040.03
2023-03-20T00:53:25.032Z,98038.84
2023-03-20T00:56:36.776Z,98037.63
2023-03-20T00:59:42.672Z,98035.34
2023-03-20T01:02:46.140Z,98028.28
2023-03-20T01:05:50.081Z,98031.22
2023-03-20T01:08:52.849Z,98026.28
2023-03-20T01:11:55.438Z,98031.44
2023-03-20T01:14:58.894Z,98027.66
2023-03-20T01:18:01.870Z,98030.25
2023-03-20T01:21:04.547Z,98032.13
2023-03-20T01:24:07.436Z,98028.91
2023-03-20T01:27:20.054Z,98037.13
2023-03-20T01:30:25.669Z,98041.25
2023-03-20T01:33:29.614Z,98029.00
2023-03-20T01:36:32.154Z,98041.91
2023-03-20T01:39:36.478Z,98042.69
2023-03-20T01:42:39.918Z,98041.84
2023-03-20T01:45:53.570Z,98038.31
2023-03-20T01:49:08.159Z,98040.69
2023-03-20T01:52:11.685Z,98037.34
2023-03-20T01:55:14.434Z,98043.06
2023-03-20T01:58:23.154Z,98037.63
2023-03-20T02:01:28.294Z,98041.44
2023-03-20T02:04:37.734Z,98038.38
2023-03-20T02:07:49.997Z,98039.09
2023-03-20T02:10:55.533Z,98039.28
2023-03-20T02:14:03.021Z,98036.22
2023-03-20T02:17:13.620Z,98037.41
2023-03-20T02:20:30.933Z,98036.50
2023-03-20T02:24:05.812Z,98027.38
2023-03-20T02:27:35.491Z,98035.75
2023-03-20T02:30:41.082Z,98027.44
2023-03-20T02:33:55.979Z,98034.59
2023-03-20T02:37:23.381Z,98032.72
2023-03-20T02:40:25.891Z,98033.63
2023-03-20T02:43:46.831Z,98029.38
2023-03-20T02:47:12.886Z,98034.06
2023-03-20T02:50:50.561Z,98028.50
2023-03-20T02:53:58.479Z,98019.97
2023-03-20T02:57:08.765Z,98025.88
2023-03-20T03:00:36.801Z,98023.00
2023-03-20T03:03:52.276Z,98023.91
2023-03-20T03:06:56.504Z,98020.16
2023-03-20T03:10:18.431Z,98035.47
2023-03-20T03:13:29.350Z,98028.03
2023-03-20T03:16:35.617Z,98026.38
2023-03-20T03:19:40.165Z,98036.28
2023-03-20T03:22:42.752Z,98028.72
2023-03-20T03:25:47.006Z,98025.88
2023-03-20T03:28:53.918Z,98028.19
2023-03-20T03:31:56.766Z,98031.47
2023-03-20T03:35:00.986Z,98024.50
2023-03-20T03:38:18.881Z,98030.56
2023-03-20T03:41:50.032Z,98023.91
2023-03-20T03:45:00.583Z,98032.88
2023-03-20T03:48:15.690Z,98029.78
2023-03-20T03:51:21.682Z,98030.25
2023-03-20T03:54:37.343Z,98033.06
2023-03-20T03:58:03.914Z,98037.31
2023-03-20T04:01:07.939Z,98042.53
2023-03-20T04:04:13.036Z,98037.31
2023-03-20T04:07:16.159Z,98042.06
2023-03-20T04:10:19.972Z,98030.63
2023-03-20T04:13:22.685Z,98042.56
2023-03-20T04:16:25.961Z,98046.16
2023-03-20T04:19:29.061Z,98035.50
2023-03-20T04:22:34.921Z,98041.81
2023-03-20T04:25:42.999Z,98047.50
2023-03-20T04:28:45.864Z,98044.09
2023-03-20T04:32:07.423Z,98035.19
2023-03-20T04:35:35.176Z,98041.72
2023-03-20T04:38:47.526Z,98042.53
2023-03-20T04:41:50.038Z,98040.97
2023-03-20T04:44:52.861Z,98055.19
2023-03-20T04:47:55.562Z,98050.81
2023-03-20T04:50:59.344Z,98053.09
2023-03-20T04:54:14.692Z,98042.09
2023-03-20T04:57:18.645Z,98050.25
2023-03-20T05:00:21.790Z,98045.84
2023-03-20T05:03:24.723Z,98046.19
2023-03-20T05:06:28.587Z,98055.75
2023-03-20T05:09:31.781Z,98054.00
2023-03-20T05:12:37.962Z,98060.00
2023-03-20T05:16:02.227Z,98056.94
2023-03-20T05:19:19.999Z,98052.19
2023-03-20T05:22:49.395Z,98065.50
2023-03-20T05:26:09.524Z,98067.63
2023-03-20T05:29:30.435Z,98069.09
2023-03-20T05:32:53.167Z,98073.34
2023-03-20T05:36:06.392Z,98078.41
2023-03-20T05:39:24.154Z,98083.28
2023-03-20T05:42:53.215Z,98079.09
2023-03-20T05:46:13.634Z,98083.41
2023-03-20T05:49:28.285Z,98083.78
2023-03-20T05:53:06.446Z,98084.09
2023-03-20T05:56:24.831Z,98091.91
2023-03-20T05:59:45.990Z,98079.78
2023-03-20T06:03:02.401Z,98096.97
2023-03-20T06:06:24.840Z,98095.19
2023-03-20T06:09:30.117Z,98104.19
2023-03-20T06:12:34.174Z,98104.81
2023-03-20T06:15:37.423Z,98109.41
2023-03-20T06:18:49.430Z,98115.78
2023-03-20T06:21:52.217Z,98111.13
2023-03-20T06:24:57.541Z,98116.50
2023-03-20T06:28:06.572Z,98114.44
2023-03-20T06:31:10.237Z,98118.28
2023-03-20T06:34:13.322Z,98121.56
2023-03-20T06:37:20.963Z,98118.78
2023-03-20T06:40:25.755Z,98112.00
2023-03-20T06:43:28.526Z,98115.31
2023-03-20T06:46:31.450Z,98112.44
2023-03-20T06:49:34.171Z,98108.69
2023-03-20T06:52:36.695Z,98107.06
2023-03-20T06:56:04.403Z,98105.94
2023-03-20T06:59:07.700Z,98118.88
2023-03-20T07:02:11.788Z,98113.81
2023-03-20T07:05:16.223Z,98109.28
2023-03-20T07:08:19.314Z,98111.84
2023-03-20T07:11:22.650Z,98115.00
2023-03-20T07:14:28.984Z,98119.16
2023-03-20T07:17:40.243Z,98113.66
2023-03-20T07:20:43.630Z,98122.22
2023-03-20T07:23:46.779Z,98121.41
2023-03-20T07:26:50.198Z,98124.28
2023-03-20T07:29:53.679Z,98122.91
2023-03-20T07:32:56.439Z,98125.06
2023-03-20T07:36:04.313Z,98119.56
2023-03-20T07:39:07.223Z,98123.94
2023-03-20T07:42:11.833Z,98119.50
2023-03-20T07:45:21.221Z,98129.56
2023-03-20T07:48:23.839Z,98124.16
2023-03-20T07:51:26.946Z,98110.00
2023-03-20T07:54:29.620Z,98125.63
2023-03-20T07:57:33.840Z,98118.09
2023-03-20T08:00:36.596Z,98126.25
2023-03-20T08:03:40.025Z,98124.66
2023-03-20T08:06:44.029Z,98121.91
2023-03-20T08:09:46.807Z,98121.00
2023-03-20T08:12:49.490Z,98114.13
2023-03-20T08:15:52.141Z,98122.66
2023-03-20T08:19:01.484Z,98116.09
2023-03-20T08:22:07.590Z,98128.06
2023-03-20T08:25:10.740Z,98129.44
2023-03-20T08:28:13.388Z,98124.06
2023-03-20T08:31:17.946Z,98121.94
2023-03-20T08:34:22.911Z,98118.00
2023-03-20T08:37:27.100Z,98123.63
2023-03-20T08:40:30.329Z,98118.78
2023-03-20T08:43:32.976Z,98126.00
2023-03-20T08:46:35.636Z,98124.81
2023-03-20T08:49:38.243Z,98143.38
2023-03-20T08:52:44.465Z,98135.50
2023-03-20T08:55:54.270Z,98129.66
2023-03-20T08:58:57.248Z,98130.31
2023-03-20T09:01:59.910Z,98132.50
2023-03-20T09:05:02.656Z,98133.28
2023-03-20T09:08:05.769Z,98132.47
2023-03-20T09:11:08.446Z,98121.13
2023-03-20T09:14:11.149Z,98123.78
2023-03-20T09:17:13.854Z,98127.88
2023-03-20T09:20:16.602Z,98131.16
2023-03-20T09:23:19.652Z,98120.28
2023-03-20T09:26:22.856Z,98126.91
2023-03-20T09:29:25.596Z,98122.09
2023-03-20T09:32:28.132Z,98120.81
2023-03-20T09:35:31.369Z,98115.16
2023-03-20T09:38:34.074Z,98101.63
2023-03-20T09:41:52.966Z,98105.19
2023-03-20T09:45:07.941Z,98100.22
2023-03-20T09:48:28.977Z,98092.91
2023-03-20T09:51:36.847Z,98094.53
2023-03-20T09:54:54.201Z,98080.69
2023-03-20T09:57:59.494Z,98086.59
2023-03-20T10:01:04.476Z,98093.94
2023-03-20T10:04:10.086Z,98094.06
2023-03-20T10:07:14.202Z,98095.22
2023-03-20T10:10:20.776Z,98091.97
2023-03-20T10:13:38.604Z,98080.47
2023-03-20T10:16:59.108Z,98080.47
2023-03-20T10:20:14.365Z,98078.88
2023-03-20T10:23:24.823Z,98077.38
2023-03-20T10:26:28.012Z,98075.38
2023-03-20T10:30:05.965Z,98067.22
2023-03-20T10:33:14.651Z,98070.72
2023-03-20T10:36:54.561Z,98066.81
2023-03-20T10:40:00.117Z,98078.50
2023-03-20T10:43:25.041Z,98074.19
2023-03-20T10:46:30.864Z,98069.19
2023-03-20T10:49:57.148Z,98078.81
2023-03-20T10:53:00.793Z,98072.81
2023-03-20T10:56:09.505Z,98075.00
2023-03-20T10:59:29.205Z,98081.22
2023-03-20T11:02:35.388Z,98068.34
2023-03-20T11:05:42.276Z,98074.75
2023-03-20T11:08:48.738Z,98066.63
2023-03-20T11:11:53.818Z,98069.72
2023-03-20T11:15:01.108Z,98065.69
2023-03-20T11:18:11.168Z,98064.44
2023-03-20T11:21:23.294Z,98053.94
2023-03-20T11:24:41.260Z,98053.38
2023-03-20T11:27:43.903Z,98048.44
2023-03-20T11:31:03.603Z,98049.19
2023-03-20T11:34:16.151Z,98039.59
2023-03-20T11:37:29.110Z,98040.06
2023-03-20T11:40:32.873Z,98038.75
2023-03-20T11:43:38.609Z,98035.44
2023-03-20T11:46:41.187Z,98027.47
2023-03-20T11:49:50.658Z,98022.28
2023-03-20T11:52:53.919Z,98021.09
2023-03-20T11:56:23.235Z,98027.09
2023-03-20T11:59:34.860Z,98029.09
2023-03-20T12:02:38.375Z,98029.13
2023-03-20T12:05:41.082Z,98020.31
2023-03-20T12:08:49.324Z,98016.47
2023-03-20T12:12:01.412Z,98015.34
2023-03-20T12:15:13.434Z,98011.16
2023-03-20T12:18:40.064Z,98015.53
2023-03-20T12:21:48.450Z,98007.34
2023-03-20T12:25:09.990Z,98006.81
2023-03-20T12:28:21.861Z,98009.94
2023-03-20T12:31:26.825Z,98001.63
2023-03-20T12:34:36.089Z,98002.50
2023-03-20T12:37:38.780Z,98001.53
2023-03-20T12:40:44.070Z,98007.06
2023-03-20T12:44:23.384Z,97992.84
2023-03-20T12:47:44.491Z,98001.22
2023-03-20T12:51:17.105Z,97996.03
2023-03-20T12:54:37.328Z,97983.59
2023-03-20T12:58:11.016Z,97992.41
2023-03-20T13:01:38.196Z,97980.25
2023-03-20T13:04:46.889Z,97980.19
2023-03-20T13:08:02.975Z,97989.50
2023-03-20T13:11:14.852Z,97976.88
2023-03-20T13:14:30.867Z,97977.09
2023-03-20T13:18:10.659Z,97985.09
2023-03-20T13:21:17.370Z,97974.06
2023-03-20T13:24:28.559Z,97973.13
2023-03-20T13:27:41.950Z,97963.53
2023-03-20T13:31:16.022Z,97965.03
2023-03-20T13:34:54.100Z,97956.94
2023-03-20T13:38:03.705Z,97953.97
2023-03-20T13:41:10.201Z,97961.91
2023-03-20T13:44:15.515Z,97953.47
2023-03-20T13:47:25.184Z,97955.22
2023-03-20T13:51:05.687Z,97951.88
2023-03-20T13:54:20.622Z,97954.16
2023-03-20T13:57:36.490Z,97965.25
2023-03-20T14:00:47.611Z,97958.13
2023-03-20T14:03:51.025Z,97947.09
2023-03-20T14:06:55.651Z,97951.56
2023-03-20T14:09:58.394Z,97953.00
2023-03-20T14:13:03.652Z,97947.06
2023-03-20T14:16:10.894Z,97964.00
2023-03-20T14:19:22.131Z,97960.88
2023-03-20T14:22:30.115Z,97959.31
2023-03-20T14:25:40.648Z,97958.31
2023-03-20T14:29:01.043Z,97962.75
2023-03-20T14:32:12.904Z,97961.38
2023-03-20T14:35:18.400Z,97961.19
2023-03-20T14:38:21.057Z,97960.75
2023-03-20T14:41:50.086Z,97963.28
2023-03-20T14:45:08.017Z,97965.75
2023-03-20T14:48:37.902Z,97959.25
2023-03-20T14:51:45.060Z,97963.34
2023-03-20T14:54:54.961Z,97973.22
2023-03-20T14:58:06.477Z,97972.31
2023-03-20T15:01:19.590Z,97962.09
2023-03-20T15:04:36.357Z,97965.38
2023-03-20T15:07:39.857Z,97961.00
2023-03-20T15:10:52.507Z,97966.56
2023-03-20T15:13:56.207Z,97961.72
2023-03-20T15:17:00.584Z,97960.19
2023-03-20T15:20:07.198Z,97962.91
2023-03-20T15:23:09.994Z,97964.47
2023-03-20T15:26:18.023Z,97964.28
2023-03-20T15:29:20.789Z,97968.53
2023-03-20T15:32:24.149Z,97969.56
2023-03-20T15:35:27.793Z,97965.53
2023-03-20T15:38:33.551Z,97968.19
2023-03-20T15:41:38.489Z,97971.66
2023-03-20T15:44:43.210Z,97976.13
2023-03-20T15:47:45.986Z,97973.06
2023-03-20T15:51:00.712Z,97975.97
2023-03-20T15:54:08.114Z,97974.63
2023-03-20T15:57:19.897Z,97973.69
2023-03-20T16:00:45.934Z,97979.66
2023-03-20T16:03:49.386Z,97977.09
2023-03-20T16:07:00.633Z,97973.06
2023-03-20T16:10:03.525Z,97978.91
2023-03-20T16:13:08.013Z,97977.00
2023-03-20T16:16:20.424Z,97982.59
2023-03-20T16:19:25.129Z,97975.44
2023-03-20T16:22:31.123Z,97988.31
2023-03-20T16:25:35.653Z,97987.03
2023-03-20T16:28:39.054Z,97991.97
2023-03-20T16:31:54.637Z,97991.56
2023-03-20T16:34:58.691Z,97989.75
2023-03-20T16:38:05.910Z,97991.78
2023-03-20T16:41:16.686Z,97996.19
2023-03-20T16:44:29.312Z,98008.16
2023-03-20T16:47:36.690Z,98010.50
2023-03-20T16:50:40.939Z,98010.16
2023-03-20T16:53:49.210Z,98010.34
2023-03-20T16:56:53.760Z,98019.59
2023-03-20T17:00:02.177Z,98021.13
2023-03-20T17:03:26.910Z,98020.91
2023-03-20T17:06:37.961Z,98029.50
2023-03-20T17:09:55.158Z,98027.53
2023-03-20T17:12:57.871Z,98020.28
2023-03-20T17:16:00.763Z,98021.94
2023-03-20T17:19:16.449Z,98018.63
2023-03-20T17:22:22.507Z,98016.28
2023-03-20T17:25:25.358Z,98020.88
2023-03-20T17:28:34.669Z,98019.56
2023-03-20T17:31:37.485Z,98017.94
2023-03-20T17:34:40.817Z,98013.00
2023-03-20T17:37:44.137Z,98011.63
2023-03-20T17:40:50.410Z,98013.91
2023-03-20T17:43:54.281Z,98005.91
2023-03-20T17:46:59.339Z,98012.75
2023-03-20T17:50:02.309Z,98016.66
2023-03-20T17:53:05.154Z,98001.06
2023-03-20T17:56:15.313Z,98005.56
2023-03-20T17:59:18.184Z,97999.03
2023-03-20T18:02:21.218Z,98005.91
2023-03-20T18:05:24.455Z,98002.97
2023-03-20T18:08:27.163Z,98006.19
2023-03-20T18:11:30.298Z,98005.50
2023-03-20T18:14:33.371Z,98009.28
2023-03-20T18:17:36.386Z,98006.13
2023-03-20T18:20:41.641Z,98011.38
2023-03-20T18:23:45.394Z,98011.38
2023-03-20T18:26:48.775Z,98022.19
2023-03-20T18:29:52.663Z,98021.50
2023-03-20T18:32:55.739Z,98029.19
2023-03-20T18:36:00.802Z,98030.78
2023-03-20T18:39:05.203Z,98030.50
2023-03-20T18:42:08.449Z,98024.72
2023-03-20T18:45:12.105Z,98035.06
2023-03-20T18:48:15.546Z,98023.41
2023-03-20T18:51:19.126Z,98032.78
2023-03-20T18:54:21.858Z,98025.72
2023-03-20T18:57:24.594Z,98023.09
2023-03-20T19:00:43.194Z,98021.09
2023-03-20T19:03:47.131Z,98024.69
2023-03-20T19:06:50.039Z,98019.00
2023-03-20T19:09:52.799Z,98012.16
2023-03-20T19:12:56.294Z,98012.34
2023-03-20T19:15:59.307Z,98021.69
2023-03-20T19:19:04.474Z,98021.69
2023-03-20T19:22:13.012Z,98013.97
2023-03-20T19:25:18.633Z,98015.03
2023-03-20T19:28:40.653Z,98020.03
2023-03-20T19:31:44.061Z,98019.13
2023-03-20T19:35:35.298Z,98026.34
2023-03-20T19:38:14.953Z,98025.75
2023-03-20T19:41:19.933Z,98035.81
2023-03-20T19:44:22.798Z,98040.22
2023-03-20T19:47:25.681Z,98041.75
2023-03-20T19:50:34.246Z,98036.63
2023-03-20T19:53:37.000Z,98048.66
2023-03-20T19:56:40.476Z,98045.88
2023-03-20T19:59:44.030Z,98046.28
2023-03-20T20:02:47.895Z,98045.47
2023-03-20T20:05:53.165Z,98044.44
2023-03-20T20:08:56.050Z,98041.13
2023-03-20T20:11:58.966Z,98050.44
2023-03-20T20:15:01.802Z,98040.09
2023-03-20T20:18:04.649Z,98042.81
2023-03-20T20:24:30.332Z,98041.47
2023-03-20T20:27:33.674Z,98043.78
2023-03-20T20:30:37.247Z,98038.56
2023-03-20T20:33:41.123Z,98039.88
2023-03-20T20:40:10.922Z,98049.50
2023-03-20T20:43:39.042Z,98046.31
2023-03-20T20:46:36.702Z,98050.78
2023-03-20T20:49:40.140Z,98047.19
2023-03-20T20:52:43.538Z,98053.84
2023-03-20T20:55:46.081Z,98052.03
2023-03-20T20:58:48.693Z,98050.69
2023-03-20T21:01:52.264Z,98045.25
2023-03-20T21:04:55.569Z,98051.25
2023-03-20T21:07:58.400Z,98047.63
2023-03-20T21:11:04.362Z,98046.13
2023-03-20T21:14:07.051Z,98049.41
2023-03-20T21:17:10.757Z,98044.56
2023-03-20T21:20:14.001Z,98047.88
2023-03-20T21:23:16.927Z,98046.78
2023-03-20T21:26:19.916Z,98044.16
2023-03-20T21:29:22.629Z,98042.94
2023-03-20T21:32:25.522Z,98044.28
2023-03-20T21:35:28.962Z,98038.75
2023-03-20T21:41:55.891Z,98042.47
2023-03-20T21:45:53.275Z,98031.00
2023-03-20T21:49:03.864Z,98039.56
2023-03-20T22:02:09.308Z,98034.19
2023-03-20T22:09:30.856Z,98034.66
2023-03-20T22:23:00.386Z,98044.31
2023-03-20T22:26:18.271Z,98038.63
2023-03-20T22:36:36.055Z,98039.91
2023-03-20T22:40:15.223Z,98033.53
2023-03-20T22:46:09.961Z,98033.25
2023-03-20T22:49:15.067Z,98038.56
2023-03-20T22:52:31.765Z,98028.88
2023-03-20T22:55:37.856Z,98029.69
2023-03-20T22:58:40.781Z,98030.28
2023-03-20T23:01:43.330Z,98036.06
2023-03-20T23:04:48.233Z,98031.66
2023-03-20T23:07:50.921Z,98029.16
2023-03-20T23:10:53.526Z,98022.53
2023-03-20T23:13:56.531Z,98019.22
2023-03-20T23:16:59.664Z,98025.81
2023-03-20T23:20:11.326Z,98025.81
2023-03-20T23:23:15.650Z,98030.09
2023-03-20T23:26:22.483Z,98029.16
2023-03-20T23:29:25.450Z,98017.47
2023-03-20T23:32:28.000Z,98017.47
2023-03-20T23:35:30.511Z,98011.69
2023-03-20T23:38:33.157Z,98006.44
2023-03-20T23:42:02.429Z,98002.00
2023-03-20T23:45:04.454Z,97999.03
2023-03-20T23:48:13.313Z,98004.25
2023-03-20T23:51:15.895Z,97996.97
2023-03-20T23:54:18.566Z,98000.53
2023-03-20T23:57:21.182Z,97996.34
